Aviation Digital Data Service (ADDS)

Output produced by METARs form (1408 UTC 24 August 2019)
found at http://www.aviationweather.gov/metar/data/
 
METAR text: CYYZ 241400Z 07015KT 15SM FEW060 18/10 A3031 RMK SC1 SC TR SLP267 DENSITY ALT 700FT
Conditions at: CYYZ (TORONTO/PEARSON , ON, CA) observed 1400 UTC 24 August 2019
Temperature: 18.0°C (64°F)
Dewpoint: 10.0°C (50°F) [RH = 59%]
Pressure (altimeter): 30.31 inches Hg (1026.5 mb)
[Sea-level pressure: 1026.7 mb]
Winds: from the ENE (70 degrees) at 17 MPH (15 knots; 7.7 m/s)
Visibility: 15 miles (24 km)
Ceiling: at least 12,000 feet AGL
Clouds: few clouds at 6000 feet AGL
Weather: no significant weather observed at this time

METAR text: CYYZ 241300Z 06011KT 15SM FEW080 16/10 A3031 RMK AC1 SLP266
Conditions at: CYYZ (TORONTO/PEARSON , ON, CA) observed 1300 UTC 24 August 2019
Temperature: 16.0°C (61°F)
Dewpoint: 10.0°C (50°F) [RH = 68%]
Pressure (altimeter): 30.31 inches Hg (1026.5 mb)
[Sea-level pressure: 1026.6 mb]
Winds: from the ENE (60 degrees) at 13 MPH (11 knots; 5.7 m/s)
Visibility: 15 miles (24 km)
Ceiling: at least 12,000 feet AGL
Clouds: few clouds at 8000 feet AGL
Weather: no significant weather observed at this time

METAR text: CYYZ 241200Z 05009KT 15SM FEW080 14/10 A3030 RMK AC1 AC TR SLP265
Conditions at: CYYZ (TORONTO/PEARSON , ON, CA) observed 1200 UTC 24 August 2019
Temperature: 14.0°C (57°F)
Dewpoint: 10.0°C (50°F) [RH = 77%]
Pressure (altimeter): 30.30 inches Hg (1026.2 mb)
[Sea-level pressure: 1026.5 mb]
Winds: from the NE (50 degrees) at 10 MPH (9 knots; 4.6 m/s)
Visibility: 15 miles (24 km)
Ceiling: at least 12,000 feet AGL
Clouds: few clouds at 8000 feet AGL
Weather: no significant weather observed at this time

METAR text: CYYZ 241100Z 04008KT 15SM FEW080 13/09 A3029 RMK AC1 AC TR SLP258
Conditions at: CYYZ (TORONTO/PEARSON , ON, CA) observed 1100 UTC 24 August 2019
Temperature: 13.0°C (55°F)
Dewpoint: 9.0°C (48°F) [RH = 77%]
Pressure (altimeter): 30.29 inches Hg (1025.8 mb)
[Sea-level pressure: 1025.8 mb]
Winds: from the NE (40 degrees) at 9 MPH (8 knots; 4.1 m/s)
Visibility: 15 miles (24 km)
Ceiling: at least 12,000 feet AGL
Clouds: few clouds at 8000 feet AGL
Weather: no significant weather observed at this time

METAR text: CYYZ 241000Z 03010KT 15SM FEW080 12/09 A3027 RMK AC1 AC TR SLP252
Conditions at: CYYZ (TORONTO/PEARSON , ON, CA) observed 1000 UTC 24 August 2019
Temperature: 12.0°C (54°F)
Dewpoint: 9.0°C (48°F) [RH = 82%]
Pressure (altimeter): 30.27 inches Hg (1025.1 mb)
[Sea-level pressure: 1025.2 mb]
Winds: from the NNE (30 degrees) at 12 MPH (10 knots; 5.1 m/s)
Visibility: 15 miles (24 km)
Ceiling: at least 12,000 feet AGL
Clouds: few clouds at 8000 feet AGL
Weather: no significant weather observed at this time

METAR text: CYYZ 240900Z 03007KT 15SM SKC 13/09 A3025 RMK SLP246
Conditions at: CYYZ (TORONTO/PEARSON , ON, CA) observed 0900 UTC 24 August 2019
Temperature: 13.0°C (55°F)
Dewpoint: 9.0°C (48°F) [RH = 77%]
Pressure (altimeter): 30.25 inches Hg (1024.5 mb)
[Sea-level pressure: 1024.6 mb]
Winds: from the NNE (30 degrees) at 8 MPH (7 knots; 3.6 m/s)
Visibility: 15 miles (24 km)
Ceiling: at least 12,000 feet AGL
Clouds: clear skies
Weather: no significant weather observed at this time

METAR text: CYYZ 240800Z 02004KT 340V040 15SM SKC 13/09 A3025 RMK SLP245
Conditions at: CYYZ (TORONTO/PEARSON , ON, CA) observed 0800 UTC 24 August 2019
Temperature: 13.0°C (55°F)
Dewpoint: 9.0°C (48°F) [RH = 77%]
Pressure (altimeter): 30.25 inches Hg (1024.5 mb)
[Sea-level pressure: 1024.5 mb]
Winds: from the NNE (20 degrees) at 5 MPH (4 knots; 2.1 m/s)
Visibility: 15 miles (24 km)
Ceiling: at least 12,000 feet AGL
Clouds: clear skies
Weather: no significant weather observed at this time

METAR text: CYYZ 240700Z 03006KT 340V050 15SM SKC 14/09 A3023 RMK SLP240
Conditions at: CYYZ (TORONTO/PEARSON , ON, CA) observed 0700 UTC 24 August 2019
Temperature: 14.0°C (57°F)
Dewpoint: 9.0°C (48°F) [RH = 72%]
Pressure (altimeter): 30.23 inches Hg (1023.8 mb)
[Sea-level pressure: 1024.0 mb]
Winds: from the NNE (30 degrees) at 7 MPH (6 knots; 3.1 m/s)
Visibility: 15 miles (24 km)
Ceiling: at least 12,000 feet AGL
Clouds: clear skies
Weather: no significant weather observed at this time

METAR text: CYYZ 240600Z 01004KT 15SM SKC 14/10 A3023 RMK SLP238
Conditions at: CYYZ (TORONTO/PEARSON , ON, CA) observed 0600 UTC 24 August 2019
Temperature: 14.0°C (57°F)
Dewpoint: 10.0°C (50°F) [RH = 77%]
Pressure (altimeter): 30.23 inches Hg (1023.8 mb)
[Sea-level pressure: 1023.8 mb]
Winds: from the N (10 degrees) at 5 MPH (4 knots; 2.1 m/s)
Visibility: 15 miles (24 km)
Ceiling: at least 12,000 feet AGL
Clouds: clear skies
Weather: no significant weather observed at this time

METAR text: CYYZ 240500Z 04008KT 15SM SKC 15/10 A3022 RMK SLP235
Conditions at: CYYZ (TORONTO/PEARSON , ON, CA) observed 0500 UTC 24 August 2019
Temperature: 15.0°C (59°F)
Dewpoint: 10.0°C (50°F) [RH = 72%]
Pressure (altimeter): 30.22 inches Hg (1023.5 mb)
[Sea-level pressure: 1023.5 mb]
Winds: from the NE (40 degrees) at 9 MPH (8 knots; 4.1 m/s)
Visibility: 15 miles (24 km)
Ceiling: at least 12,000 feet AGL
Clouds: clear skies
Weather: no significant weather observed at this time

METAR text: CYYZ 240400Z 04007KT 15SM SKC 15/10 A3021 RMK SLP231
Conditions at: CYYZ (TORONTO/PEARSON , ON, CA) observed 0400 UTC 24 August 2019
Temperature: 15.0°C (59°F)
Dewpoint: 10.0°C (50°F) [RH = 72%]
Pressure (altimeter): 30.21 inches Hg (1023.1 mb)
[Sea-level pressure: 1023.1 mb]
Winds: from the NE (40 degrees) at 8 MPH (7 knots; 3.6 m/s)
Visibility: 15 miles (24 km)
Ceiling: at least 12,000 feet AGL
Clouds: clear skies
Weather: no significant weather observed at this time

METAR text: CYYZ 240300Z 03005KT 350V050 15SM FEW070 16/10 A3019 RMK AC1 AC TR SLP226 DENSITY ALT 600FT
Conditions at: CYYZ (TORONTO/PEARSON , ON, CA) observed 0300 UTC 24 August 2019
Temperature: 16.0°C (61°F)
Dewpoint: 10.0°C (50°F) [RH = 68%]
Pressure (altimeter): 30.19 inches Hg (1022.4 mb)
[Sea-level pressure: 1022.6 mb]
Winds: from the NNE (30 degrees) at 6 MPH (5 knots; 2.6 m/s)
Visibility: 15 miles (24 km)
Ceiling: at least 12,000 feet AGL
Clouds: few clouds at 7000 feet AGL
Weather: no significant weather observed at this time

METAR text: CYYZ 240200Z 02006KT 330V040 15SM FEW065 17/10 A3019 RMK SC1 SLP224 DENSITY ALT 700FT
Conditions at: CYYZ (TORONTO/PEARSON , ON, CA) observed 0200 UTC 24 August 2019
Temperature: 17.0°C (63°F)
Dewpoint: 10.0°C (50°F) [RH = 63%]
Pressure (altimeter): 30.19 inches Hg (1022.4 mb)
[Sea-level pressure: 1022.4 mb]
Winds: from the NNE (20 degrees) at 7 MPH (6 knots; 3.1 m/s)
Visibility: 15 miles (24 km)
Ceiling: at least 12,000 feet AGL
Clouds: few clouds at 6500 feet AGL
Weather: no significant weather observed at this time

METAR text: CYYZ 240100Z 01006KT 330V050 15SM FEW065 18/09 A3017 RMK SC1 SLP218 DENSITY ALT 800FT
Conditions at: CYYZ (TORONTO/PEARSON , ON, CA) observed 0100 UTC 24 August 2019
Temperature: 18.0°C (64°F)
Dewpoint: 9.0°C (48°F) [RH = 56%]
Pressure (altimeter): 30.17 inches Hg (1021.8 mb)
[Sea-level pressure: 1021.8 mb]
Winds: from the N (10 degrees) at 7 MPH (6 knots; 3.1 m/s)
Visibility: 15 miles (24 km)
Ceiling: at least 12,000 feet AGL
Clouds: few clouds at 6500 feet AGL
Weather: no significant weather observed at this time

METAR text: CYYZ 240000Z 35009G17KT 340V040 15SM FEW065 19/08 A3015 RMK SC1 SLP212 DENSITY ALT 900FT
Conditions at: CYYZ (TORONTO/PEARSON , ON, CA) observed 0000 UTC 24 August 2019
Temperature: 19.0°C (66°F)
Dewpoint: 8.0°C (46°F) [RH = 49%]
Pressure (altimeter): 30.15 inches Hg (1021.1 mb)
[Sea-level pressure: 1021.2 mb]
Winds: from the N (350 degrees) at 10 MPH (9 knots; 4.6 m/s)
gusting to 20 MPH (17 knots; 8.7 m/s)
Visibility: 15 miles (24 km)
Ceiling: at least 12,000 feet AGL
Clouds: few clouds at 6500 feet AGL
Weather: no significant weather observed at this time

METAR text: CYYZ 232300Z 02008KT 350V050 15SM FEW065 20/08 A3014 RMK SC1 SLP207 DENSITY ALT 1100FT
Conditions at: CYYZ (TORONTO/PEARSON , ON, CA) observed 2300 UTC 23 August 2019
Temperature: 20.0°C (68°F)
Dewpoint: 8.0°C (46°F) [RH = 46%]
Pressure (altimeter): 30.14 inches Hg (1020.7 mb)
[Sea-level pressure: 1020.7 mb]
Winds: from the NNE (20 degrees) at 9 MPH (8 knots; 4.1 m/s)
Visibility: 15 miles (24 km)
Ceiling: at least 12,000 feet AGL
Clouds: few clouds at 6500 feet AGL
Weather: no significant weather observed at this time

METAR text: CYYZ 232200Z 34010G18KT 320V050 15SM FEW065 22/05 A3013 RMK CU2 SLP205 DENSITY ALT 1300FT
Conditions at: CYYZ (TORONTO/PEARSON , ON, CA) observed 2200 UTC 23 August 2019
Temperature: 22.0°C (72°F)
Dewpoint: 5.0°C (41°F) [RH = 33%]
Pressure (altimeter): 30.13 inches Hg (1020.4 mb)
[Sea-level pressure: 1020.5 mb]
Winds: from the NNW (340 degrees) at 12 MPH (10 knots; 5.1 m/s)
gusting to 21 MPH (18 knots; 9.3 m/s)
Visibility: 15 miles (24 km)
Ceiling: at least 12,000 feet AGL
Clouds: few clouds at 6500 feet AGL
Weather: no significant weather observed at this time

METAR text: CYYZ 232100Z 03010G18KT 340V050 15SM SCT065 22/05 A3013 RMK CU4 SLP203 DENSITY ALT 1400FT
Conditions at: CYYZ (TORONTO/PEARSON , ON, CA) observed 2100 UTC 23 August 2019
Temperature: 22.0°C (72°F)
Dewpoint: 5.0°C (41°F) [RH = 33%]
Pressure (altimeter): 30.13 inches Hg (1020.4 mb)
[Sea-level pressure: 1020.3 mb]
Winds: from the NNE (30 degrees) at 12 MPH (10 knots; 5.1 m/s)
gusting to 21 MPH (18 knots; 9.3 m/s)
Visibility: 15 miles (24 km)
Ceiling: at least 12,000 feet AGL
Clouds: scattered clouds at 6500 feet AGL
Weather: no significant weather observed at this time

METAR text: CYYZ 232000Z 01006G17KT 330V050 15SM SCT050 23/07 A3012 RMK SC4 SLP202 DENSITY ALT 1400FT
Conditions at: CYYZ (TORONTO/PEARSON , ON, CA) observed 2000 UTC 23 August 2019
Temperature: 23.0°C (73°F)
Dewpoint: 7.0°C (45°F) [RH = 36%]
Pressure (altimeter): 30.12 inches Hg (1020.1 mb)
[Sea-level pressure: 1020.2 mb]
Winds: from the N (10 degrees) at 7 MPH (6 knots; 3.1 m/s)
gusting to 20 MPH (17 knots; 8.7 m/s)
Visibility: 15 miles (24 km)
Ceiling: at least 12,000 feet AGL
Clouds: scattered clouds at 5000 feet AGL
Weather: no significant weather observed at this time

METAR text: CYYZ 231900Z 03010G19KT 15SM BKN050 22/08 A3013 RMK CU5 SLP203 DENSITY ALT 1300FT
Conditions at: CYYZ (TORONTO/PEARSON , ON, CA) observed 1900 UTC 23 August 2019
Temperature: 22.0°C (72°F)
Dewpoint: 8.0°C (46°F) [RH = 41%]
Pressure (altimeter): 30.13 inches Hg (1020.4 mb)
[Sea-level pressure: 1020.3 mb]
Winds: from the NNE (30 degrees) at 12 MPH (10 knots; 5.1 m/s)
gusting to 22 MPH (19 knots; 9.8 m/s)
Visibility: 15 miles (24 km)
Ceiling: 5000 feet AGL
Clouds: broken clouds at 5000 feet AGL
Weather: no significant weather observed at this time

METAR text: CYYZ 231800Z 03011G17KT 340V050 15SM BKN050 22/08 A3012 RMK CU5 SLP202 DENSITY ALT 1400FT
Conditions at: CYYZ (TORONTO/PEARSON , ON, CA) observed 1800 UTC 23 August 2019
Temperature: 22.0°C (72°F)
Dewpoint: 8.0°C (46°F) [RH = 41%]
Pressure (altimeter): 30.12 inches Hg (1020.1 mb)
[Sea-level pressure: 1020.2 mb]
Winds: from the NNE (30 degrees) at 13 MPH (11 knots; 5.7 m/s)
gusting to 20 MPH (17 knots; 8.7 m/s)
Visibility: 15 miles (24 km)
Ceiling: 5000 feet AGL
Clouds: broken clouds at 5000 feet AGL
Weather: no significant weather observed at this time

METAR text: CYYZ 231700Z 05011KT 330V060 15SM SCT050 22/10 A3013 RMK CU4 SLP203 DENSITY ALT 1300FT
Conditions at: CYYZ (TORONTO/PEARSON , ON, CA) observed 1700 UTC 23 August 2019
Temperature: 22.0°C (72°F)
Dewpoint: 10.0°C (50°F) [RH = 46%]
Pressure (altimeter): 30.13 inches Hg (1020.4 mb)
[Sea-level pressure: 1020.3 mb]
Winds: from the NE (50 degrees) at 13 MPH (11 knots; 5.7 m/s)
Visibility: 15 miles (24 km)
Ceiling: at least 12,000 feet AGL
Clouds: scattered clouds at 5000 feet AGL
Weather: no significant weather observed at this time

METAR text: CYYZ 231600Z 01007G15KT 320V070 15SM SCT040 21/10 A3013 RMK CU3 SLP203 DENSITY ALT 1300FT
Conditions at: CYYZ (TORONTO/PEARSON , ON, CA) observed 1600 UTC 23 August 2019
Temperature: 21.0°C (70°F)
Dewpoint: 10.0°C (50°F) [RH = 49%]
Pressure (altimeter): 30.13 inches Hg (1020.4 mb)
[Sea-level pressure: 1020.3 mb]
Winds: from the N (10 degrees) at 8 MPH (7 knots; 3.6 m/s)
gusting to 17 MPH (15 knots; 7.7 m/s)
Visibility: 15 miles (24 km)
Ceiling: at least 12,000 feet AGL
Clouds: scattered clouds at 4000 feet AGL
Weather: no significant weather observed at this time

METAR text: CYYZ 231500Z 02006KT 350V060 15SM SCT040 21/11 A3013 RMK CU3 SLP205 DENSITY ALT 1200FT
Conditions at: CYYZ (TORONTO/PEARSON , ON, CA) observed 1500 UTC 23 August 2019
Temperature: 21.0°C (70°F)
Dewpoint: 11.0°C (52°F) [RH = 53%]
Pressure (altimeter): 30.13 inches Hg (1020.4 mb)
[Sea-level pressure: 1020.5 mb]
Winds: from the NNE (20 degrees) at 7 MPH (6 knots; 3.1 m/s)
Visibility: 15 miles (24 km)
Ceiling: at least 12,000 feet AGL
Clouds: scattered clouds at 4000 feet AGL
Weather: no significant weather observed at this time

METAR text: CYYZ 231400Z 05008KT 15SM FEW040 19/12 A3013 RMK CU1 SLP204 DENSITY ALT 1000FT
Conditions at: CYYZ (TORONTO/PEARSON , ON, CA) observed 1400 UTC 23 August 2019
Temperature: 19.0°C (66°F)
Dewpoint: 12.0°C (54°F) [RH = 64%]
Pressure (altimeter): 30.13 inches Hg (1020.4 mb)
[Sea-level pressure: 1020.4 mb]
Winds: from the NE (50 degrees) at 9 MPH (8 knots; 4.1 m/s)
Visibility: 15 miles (24 km)
Ceiling: at least 12,000 feet AGL
Clouds: few clouds at 4000 feet AGL
Weather: no significant weather observed at this time

METAR text: CYYZ 231300Z 05009KT 15SM FEW050 18/13 A3012 RMK SC1 SLP200 DENSITY ALT 800FT
Conditions at: CYYZ (TORONTO/PEARSON , ON, CA) observed 1300 UTC 23 August 2019
Temperature: 18.0°C (64°F)
Dewpoint: 13.0°C (55°F) [RH = 73%]
Pressure (altimeter): 30.12 inches Hg (1020.1 mb)
[Sea-level pressure: 1020.0 mb]
Winds: from the NE (50 degrees) at 10 MPH (9 knots; 4.6 m/s)
Visibility: 15 miles (24 km)
Ceiling: at least 12,000 feet AGL
Clouds: few clouds at 5000 feet AGL
Weather: no significant weather observed at this time

METAR text: CYYZ 231200Z 03007KT 15SM FEW050 16/11 A3010 RMK SC1 SLP195 DENSITY ALT 600FT
Conditions at: CYYZ (TORONTO/PEARSON , ON, CA) observed 1200 UTC 23 August 2019
Temperature: 16.0°C (61°F)
Dewpoint: 11.0°C (52°F) [RH = 72%]
Pressure (altimeter): 30.10 inches Hg (1019.4 mb)
[Sea-level pressure: 1019.5 mb]
Winds: from the NNE (30 degrees) at 8 MPH (7 knots; 3.6 m/s)
Visibility: 15 miles (24 km)
Ceiling: at least 12,000 feet AGL
Clouds: few clouds at 5000 feet AGL
Weather: no significant weather observed at this time

METAR text: CYYZ 231100Z 02005KT 15SM FEW050 14/11 A3009 RMK SC1 SLP193
Conditions at: CYYZ (TORONTO/PEARSON , ON, CA) observed 1100 UTC 23 August 2019
Temperature: 14.0°C (57°F)
Dewpoint: 11.0°C (52°F) [RH = 82%]
Pressure (altimeter): 30.09 inches Hg (1019.0 mb)
[Sea-level pressure: 1019.3 mb]
Winds: from the NNE (20 degrees) at 6 MPH (5 knots; 2.6 m/s)
Visibility: 15 miles (24 km)
Ceiling: at least 12,000 feet AGL
Clouds: few clouds at 5000 feet AGL
Weather: no significant weather observed at this time

METAR text: CYYZ 231000Z 02004KT 15SM SKC 14/11 A3007 RMK SLP185
Conditions at: CYYZ (TORONTO/PEARSON , ON, CA) observed 1000 UTC 23 August 2019
Temperature: 14.0°C (57°F)
Dewpoint: 11.0°C (52°F) [RH = 82%]
Pressure (altimeter): 30.07 inches Hg (1018.4 mb)
[Sea-level pressure: 1018.5 mb]
Winds: from the NNE (20 degrees) at 5 MPH (4 knots; 2.1 m/s)
Visibility: 15 miles (24 km)
Ceiling: at least 12,000 feet AGL
Clouds: clear skies
Weather: no significant weather observed at this time

METAR text: CYYZ 230900Z 01003KT 330V050 15SM SKC 14/11 A3007 RMK SLP182
Conditions at: CYYZ (TORONTO/PEARSON , ON, CA) observed 0900 UTC 23 August 2019
Temperature: 14.0°C (57°F)
Dewpoint: 11.0°C (52°F) [RH = 82%]
Pressure (altimeter): 30.07 inches Hg (1018.4 mb)
[Sea-level pressure: 1018.2 mb]
Winds: from the N (10 degrees) at 3 MPH (3 knots; 1.5 m/s)
Visibility: 15 miles (24 km)
Ceiling: at least 12,000 feet AGL
Clouds: clear skies
Weather: no significant weather observed at this time

METAR text: CYYZ 230800Z 03005KT 340V040 15SM SKC 14/11 A3004 RMK SLP175
Conditions at: CYYZ (TORONTO/PEARSON , ON, CA) observed 0800 UTC 23 August 2019
Temperature: 14.0°C (57°F)
Dewpoint: 11.0°C (52°F) [RH = 82%]
Pressure (altimeter): 30.04 inches Hg (1017.4 mb)
[Sea-level pressure: 1017.5 mb]
Winds: from the NNE (30 degrees) at 6 MPH (5 knots; 2.6 m/s)
Visibility: 15 miles (24 km)
Ceiling: at least 12,000 feet AGL
Clouds: clear skies
Weather: no significant weather observed at this time

METAR text: CYYZ 230700Z 36003KT 330V050 15SM FEW065 15/11 A3004 RMK SC1 SLP173 DENSITY ALT 600FT
Conditions at: CYYZ (TORONTO/PEARSON , ON, CA) observed 0700 UTC 23 August 2019
Temperature: 15.0°C (59°F)
Dewpoint: 11.0°C (52°F) [RH = 77%]
Pressure (altimeter): 30.04 inches Hg (1017.4 mb)
[Sea-level pressure: 1017.3 mb]
Winds: from the N (360 degrees) at 3 MPH (3 knots; 1.5 m/s)
Visibility: 15 miles (24 km)
Ceiling: at least 12,000 feet AGL
Clouds: few clouds at 6500 feet AGL
Weather: no significant weather observed at this time

METAR text: CYYZ 230600Z 02005KT 330V040 15SM FEW065 16/11 A3004 RMK SC2 SLP174 DENSITY ALT 700FT
Conditions at: CYYZ (TORONTO/PEARSON , ON, CA) observed 0600 UTC 23 August 2019
Temperature: 16.0°C (61°F)
Dewpoint: 11.0°C (52°F) [RH = 72%]
Pressure (altimeter): 30.04 inches Hg (1017.4 mb)
[Sea-level pressure: 1017.4 mb]
Winds: from the NNE (20 degrees) at 6 MPH (5 knots; 2.6 m/s)
Visibility: 15 miles (24 km)
Ceiling: at least 12,000 feet AGL
Clouds: few clouds at 6500 feet AGL
Weather: no significant weather observed at this time

METAR text: CYYZ 230500Z 34007KT 320V030 15SM FEW065 16/11 A3003 RMK SC1 SLP170 DENSITY ALT 800FT
Conditions at: CYYZ (TORONTO/PEARSON , ON, CA) observed 0500 UTC 23 August 2019
Temperature: 16.0°C (61°F)
Dewpoint: 11.0°C (52°F) [RH = 72%]
Pressure (altimeter): 30.03 inches Hg (1017.0 mb)
[Sea-level pressure: 1017.0 mb]
Winds: from the NNW (340 degrees) at 8 MPH (7 knots; 3.6 m/s)
Visibility: 15 miles (24 km)
Ceiling: at least 12,000 feet AGL
Clouds: few clouds at 6500 feet AGL
Weather: no significant weather observed at this time

METAR text: CYYZ 230400Z 01004G15KT 330V040 15SM SCT065 17/11 A3001 RMK SC3 SLP165 DENSITY ALT 800FT
Conditions at: CYYZ (TORONTO/PEARSON , ON, CA) observed 0400 UTC 23 August 2019
Temperature: 17.0°C (63°F)
Dewpoint: 11.0°C (52°F) [RH = 68%]
Pressure (altimeter): 30.01 inches Hg (1016.3 mb)
[Sea-level pressure: 1016.5 mb]
Winds: from the N (10 degrees) at 5 MPH (4 knots; 2.1 m/s)
gusting to 17 MPH (15 knots; 7.7 m/s)
Visibility: 15 miles (24 km)
Ceiling: at least 12,000 feet AGL
Clouds: scattered clouds at 6500 feet AGL
Weather: no significant weather observed at this time

METAR text: CYYZ 230300Z 35008G18KT 15SM FEW050 17/11 A3000 RMK SC1 SLP160 DENSITY ALT 900FT
Conditions at: CYYZ (TORONTO/PEARSON , ON, CA) observed 0300 UTC 23 August 2019
Temperature: 17.0°C (63°F)
Dewpoint: 11.0°C (52°F) [RH = 68%]
Pressure (altimeter): 30.00 inches Hg (1016.0 mb)
[Sea-level pressure: 1016.0 mb]
Winds: from the N (350 degrees) at 9 MPH (8 knots; 4.1 m/s)
gusting to 21 MPH (18 knots; 9.3 m/s)
Visibility: 15 miles (24 km)
Ceiling: at least 12,000 feet AGL
Clouds: few clouds at 5000 feet AGL
Weather: no significant weather observed at this time

Forecast for: CYYZ (TORONTO/PEARSON , ON, CA)
Text: TAF CYYZ 241138Z 2412/2518 03010KT P6SM FEW080
Forecast period: 1200 to 1500 UTC 24 August 2019
Forecast type: FROM: standard forecast or significant change
Winds: from the NNE (30 degrees) at 12 MPH (10 knots; 5.1 m/s)
Visibility: 6 or more miles 10+ km)
Ceiling: at least 12,000 feet AGL
Clouds: few clouds at 8000 feet AGL
Weather: no significant weather forecast for this period
Text: FM241500 06008KT P6SM FEW050
Forecast period: 1500 to 1600 UTC 24 August 2019
Forecast type: FROM: standard forecast or significant change
Winds: from the ENE (60 degrees) at 9 MPH (8 knots; 4.1 m/s)
Visibility: 6 or more miles 10+ km)
Ceiling: at least 12,000 feet AGL
Clouds: few clouds at 5000 feet AGL
Weather: no significant weather forecast for this period
Text: BECMG 2416/2418 15010KT
Forecast period: 1600 UTC 24 August 2019 to 0200 UTC 25 August 2019
Forecast type: BECOMING: Conditions expected to become as follows by 1800 UTC 24 August 2019
Winds: from the SSE (150 degrees) at 12 MPH (10 knots; 5.1 m/s)
Visibility: 6 or more miles 10+ km)
Ceiling: at least 12,000 feet AGL
Clouds: few clouds at 5000 feet AGL
Weather: no significant weather forecast for this period
Text: FM250200 36005KT P6SM SKC
Forecast period: 0200 to 1500 UTC 25 August 2019
Forecast type: FROM: standard forecast or significant change
Winds: from the N (360 degrees) at 6 MPH (5 knots; 2.6 m/s)
Visibility: 6 or more miles 10+ km)
Clouds: clear skies
Weather: no significant weather forecast for this period
Text: FM251500 12010KT P6SM FEW030 RMK NXT FCST BY 241500Z
Forecast period: 1500 to 1800 UTC 25 August 2019
Forecast type: FROM: standard forecast or significant change
Winds: from the ESE (120 degrees) at 12 MPH (10 knots; 5.1 m/s)
Visibility: 6 or more miles 10+ km)
Ceiling: at least 12,000 feet AGL
Clouds: few clouds at 3000 feet AGL
Weather: no significant weather forecast for this period